sensor_id;sensor_type;location;lat;lon;timestamp;temperature;humidity
21001;DHT22;10658;50.920;12.238;2022-09-01T00:02:49;14.70;99.90
21001;DHT22;10658;50.920;12.238;2022-09-01T00:06:51;14.60;99.90
21001;DHT22;10658;50.920;12.238;2022-09-01T00:10:55;14.50;99.90
21001;DHT22;10658;50.920;12.238;2022-09-01T00:14:56;14.40;99.90
21001;DHT22;10658;50.920;12.238;2022-09-01T00:19:00;14.20;99.90
21001;DHT22;10658;50.920;12.238;2022-09-01T00:23:02;14.20;99.90
21001;DHT22;10658;50.920;12.238;2022-09-01T00:27:03;14.10;99.90
21001;DHT22;10658;50.920;12.238;2022-09-01T00:31:05;14.00;99.90
21001;DHT22;10658;50.920;12.238;2022-09-01T00:35:07;14.00;99.90
21001;DHT22;10658;50.920;12.238;2022-09-01T00:39:09;13.90;99.90
21001;DHT22;10658;50.920;12.238;2022-09-01T00:43:21;13.90;99.90
21001;DHT22;10658;50.920;12.238;2022-09-01T00:47:22;13.80;99.90
21001;DHT22;10658;50.920;12.238;2022-09-01T00:51:23;13.90;99.90
21001;DHT22;10658;50.920;12.238;2022-09-01T00:55:29;13.90;99.90
21001;DHT22;10658;50.920;12.238;2022-09-01T00:59:31;13.90;99.90
21001;DHT22;10658;50.920;12.238;2022-09-01T01:03:33;13.80;99.90
21001;DHT22;10658;50.920;12.238;2022-09-01T01:07:34;13.70;99.90
21001;DHT22;10658;50.920;12.238;2022-09-01T01:11:39;13.50;99.90
21001;DHT22;10658;50.920;12.238;2022-09-01T01:15:41;13.40;99.90
21001;DHT22;10658;50.920;12.238;2022-09-01T01:19:57;13.40;99.90
21001;DHT22;10658;50.920;12.238;2022-09-01T01:24:21;13.20;99.90
21001;DHT22;10658;50.920;12.238;2022-09-01T01:28:27;13.10;99.90
21001;DHT22;10658;50.920;12.238;2022-09-01T01:32:31;13.00;99.90
21001;DHT22;10658;50.920;12.238;2022-09-01T01:36:36;13.00;99.90
21001;DHT22;10658;50.920;12.238;2022-09-01T01:40:44;12.90;99.90
21001;DHT22;10658;50.920;12.238;2022-09-01T01:44:44;12.80;99.90
21001;DHT22;10658;50.920;12.238;2022-09-01T01:48:46;12.70;99.90
21001;DHT22;10658;50.920;12.238;2022-09-01T01:52:52;12.60;99.90
21001;DHT22;10658;50.920;12.238;2022-09-01T01:56:54;12.50;99.90
21001;DHT22;10658;50.920;12.238;2022-09-01T02:00:59;12.40;99.90
21001;DHT22;10658;50.920;12.238;2022-09-01T02:05:00;12.50;99.90
21001;DHT22;10658;50.920;12.238;2022-09-01T02:09:02;12.50;99.90
21001;DHT22;10658;50.920;12.238;2022-09-01T02:13:05;12.50;99.90
21001;DHT22;10658;50.920;12.238;2022-09-01T02:17:07;12.40;99.90
21001;DHT22;10658;50.920;12.238;2022-09-01T02:21:10;12.20;99.90
21001;DHT22;10658;50.920;12.238;2022-09-01T02:25:14;12.10;99.90
21001;DHT22;10658;50.920;12.238;2022-09-01T02:29:20;12.10;99.90
21001;DHT22;10658;50.920;12.238;2022-09-01T02:33:22;12.10;99.90
21001;DHT22;10658;50.920;12.238;2022-09-01T02:37:23;12.10;99.90
21001;DHT22;10658;50.920;12.238;2022-09-01T02:41:25;12.00;99.90
21001;DHT22;10658;50.920;12.238;2022-09-01T02:45:29;11.80;99.90
21001;DHT22;10658;50.920;12.238;2022-09-01T02:49:30;11.60;99.90
21001;DHT22;10658;50.920;12.238;2022-09-01T02:53:32;11.50;99.90
21001;DHT22;10658;50.920;12.238;2022-09-01T02:57:37;11.50;99.90
21001;DHT22;10658;50.920;12.238;2022-09-01T03:01:39;11.50;99.90
21001;DHT22;10658;50.920;12.238;2022-09-01T03:05:42;11.50;99.90
21001;DHT22;10658;50.920;12.238;2022-09-01T03:09:43;11.60;99.90
21001;DHT22;10658;50.920;12.238;2022-09-01T03:13:45;11.70;99.90
21001;DHT22;10658;50.920;12.238;2022-09-01T03:17:46;11.80;99.90
21001;DHT22;10658;50.920;12.238;2022-09-01T03:21:49;12.00;99.90
21001;DHT22;10658;50.920;12.238;2022-09-01T03:25:55;12.00;99.90
21001;DHT22;10658;50.920;12.238;2022-09-01T03:29:56;12.00;99.90
21001;DHT22;10658;50.920;12.238;2022-09-01T03:33:59;12.10;99.90
21001;DHT22;10658;50.920;12.238;2022-09-01T03:38:04;12.10;99.90
21001;DHT22;10658;50.920;12.238;2022-09-01T03:42:06;12.20;99.90
21001;DHT22;10658;50.920;12.238;2022-09-01T03:46:10;12.20;99.90
21001;DHT22;10658;50.920;12.238;2022-09-01T03:50:14;12.20;99.90
21001;DHT22;10658;50.920;12.238;2022-09-01T03:54:21;12.20;99.90
21001;DHT22;10658;50.920;12.238;2022-09-01T03:58:31;12.10;99.90
21001;DHT22;10658;50.920;12.238;2022-09-01T04:02:32;12.10;99.90
21001;DHT22;10658;50.920;12.238;2022-09-01T04:06:35;12.10;99.90
21001;DHT22;10658;50.920;12.238;2022-09-01T04:10:47;12.10;99.90
21001;DHT22;10658;50.920;12.238;2022-09-01T04:14:52;12.10;99.90
21001;DHT22;10658;50.920;12.238;2022-09-01T04:18:53;12.10;99.90
21001;DHT22;10658;50.920;12.238;2022-09-01T04:22:55;12.20;99.90
21001;DHT22;10658;50.920;12.238;2022-09-01T04:26:59;12.30;99.90
21001;DHT22;10658;50.920;12.238;2022-09-01T04:31:05;12.30;99.90
21001;DHT22;10658;50.920;12.238;2022-09-01T04:35:10;12.10;99.90
21001;DHT22;10658;50.920;12.238;2022-09-01T04:39:18;12.10;99.90
21001;DHT22;10658;50.920;12.238;2022-09-01T04:43:19;12.20;99.90
21001;DHT22;10658;50.920;12.238;2022-09-01T04:47:21;12.20;99.90
21001;DHT22;10658;50.920;12.238;2022-09-01T04:51:31;12.30;99.90
21001;DHT22;10658;50.920;12.238;2022-09-01T04:55:39;12.40;99.90
21001;DHT22;10658;50.920;12.238;2022-09-01T04:59:46;12.50;99.90
21001;DHT22;10658;50.920;12.238;2022-09-01T05:04:10;12.50;99.90
21001;DHT22;10658;50.920;12.238;2022-09-01T05:08:18;12.50;99.90
21001;DHT22;10658;50.920;12.238;2022-09-01T05:12:20;12.60;99.90
21001;DHT22;10658;50.920;12.238;2022-09-01T05:16:23;12.80;99.90
21001;DHT22;10658;50.920;12.238;2022-09-01T05:20:25;12.80;99.90
21001;DHT22;10658;50.920;12.238;2022-09-01T05:24:31;12.90;99.90
21001;DHT22;10658;50.920;12.238;2022-09-01T05:28:38;13.10;99.90
21001;DHT22;10658;50.920;12.238;2022-09-01T05:32:39;13.20;99.90
21001;DHT22;10658;50.920;12.238;2022-09-01T05:36:44;13.30;99.90
21001;DHT22;10658;50.920;12.238;2022-09-01T05:40:59;13.30;99.90
21001;DHT22;10658;50.920;12.238;2022-09-01T05:45:10;13.50;99.90
21001;DHT22;10658;50.920;12.238;2022-09-01T05:49:12;13.60;99.90
21001;DHT22;10658;50.920;12.238;2022-09-01T05:53:16;13.80;99.90
21001;DHT22;10658;50.920;12.238;2022-09-01T05:57:21;13.90;99.90
21001;DHT22;10658;50.920;12.238;2022-09-01T06:01:25;14.10;99.90
21001;DHT22;10658;50.920;12.238;2022-09-01T06:05:27;14.30;99.90
21001;DHT22;10658;50.920;12.238;2022-09-01T06:09:29;14.50;99.90
21001;DHT22;10658;50.920;12.238;2022-09-01T06:13:32;14.60;99.90
21001;DHT22;10658;50.920;12.238;2022-09-01T06:17:34;14.50;99.90
21001;DHT22;10658;50.920;12.238;2022-09-01T06:21:38;14.80;99.90
21001;DHT22;10658;50.920;12.238;2022-09-01T06:25:44;15.10;99.90
21001;DHT22;10658;50.920;12.238;2022-09-01T06:29:50;15.40;99.90
21001;DHT22;10658;50.920;12.238;2022-09-01T06:33:59;15.70;99.90
21001;DHT22;10658;50.920;12.238;2022-09-01T06:38:01;16.00;99.90
21001;DHT22;10658;50.920;12.238;2022-09-01T06:42:15;16.20;99.90
21001;DHT22;10658;50.920;12.238;2022-09-01T06:46:25;16.40;99.90
21001;DHT22;10658;50.920;12.238;2022-09-01T06:50:29;16.30;99.90
21001;DHT22;10658;50.920;12.238;2022-09-01T06:54:31;16.60;99.90
21001;DHT22;10658;50.920;12.238;2022-09-01T06:58:36;16.70;99.90
21001;DHT22;10658;50.920;12.238;2022-09-01T07:02:37;16.90;99.90
21001;DHT22;10658;50.920;12.238;2022-09-01T07:07:07;17.00;99.90
21001;DHT22;10658;50.920;12.238;2022-09-01T07:11:45;17.30;99.90
21001;DHT22;10658;50.920;12.238;2022-09-01T07:15:50;17.60;99.90
21001;DHT22;10658;50.920;12.238;2022-09-01T07:19:53;17.90;99.90
21001;DHT22;10658;50.920;12.238;2022-09-01T07:23:59;18.20;99.90
21001;DHT22;10658;50.920;12.238;2022-09-01T07:28:02;18.70;99.90
21001;DHT22;10658;50.920;12.238;2022-09-01T07:32:04;19.00;99.90
21001;DHT22;10658;50.920;12.238;2022-09-01T07:36:06;19.00;99.90
21001;DHT22;10658;50.920;12.238;2022-09-01T07:40:11;19.30;99.90
21001;DHT22;10658;50.920;12.238;2022-09-01T07:44:58;19.30;99.90
21001;DHT22;10658;50.920;12.238;2022-09-01T07:49:19;19.50;99.90
21001;DHT22;10658;50.920;12.238;2022-09-01T07:53:24;19.80;99.90
21001;DHT22;10658;50.920;12.238;2022-09-01T07:57:26;19.90;99.90
21001;DHT22;10658;50.920;12.238;2022-09-01T08:01:30;19.90;99.90
21001;DHT22;10658;50.920;12.238;2022-09-01T08:05:32;20.10;99.90
21001;DHT22;10658;50.920;12.238;2022-09-01T08:09:36;20.10;99.90
21001;DHT22;10658;50.920;12.238;2022-09-01T08:13:38;20.30;99.90
21001;DHT22;10658;50.920;12.238;2022-09-01T08:17:41;20.40;99.90
21001;DHT22;10658;50.920;12.238;2022-09-01T08:21:45;20.50;99.90
21001;DHT22;10658;50.920;12.238;2022-09-01T08:26:08;20.80;99.90
21001;DHT22;10658;50.920;12.238;2022-09-01T08:30:11;20.80;99.90
21001;DHT22;10658;50.920;12.238;2022-09-01T08:34:13;20.80;99.90
21001;DHT22;10658;50.920;12.238;2022-09-01T08:38:17;21.00;99.90
21001;DHT22;10658;50.920;12.238;2022-09-01T08:47:02;21.20;99.90
21001;DHT22;10658;50.920;12.238;2022-09-01T08:55:35;21.30;99.90
21001;DHT22;10658;50.920;12.238;2022-09-01T08:59:40;21.40;99.90
21001;DHT22;10658;50.920;12.238;2022-09-01T09:04:26;21.40;99.90
21001;DHT22;10658;50.920;12.238;2022-09-01T09:13:11;21.70;99.90
21001;DHT22;10658;50.920;12.238;2022-09-01T09:17:20;21.60;99.90
21001;DHT22;10658;50.920;12.238;2022-09-01T09:21:31;21.90;99.90
21001;DHT22;10658;50.920;12.238;2022-09-01T09:25:33;22.00;99.90
21001;DHT22;10658;50.920;12.238;2022-09-01T09:29:34;21.90;99.90
21001;DHT22;10658;50.920;12.238;2022-09-01T09:33:38;22.30;99.90
21001;DHT22;10658;50.920;12.238;2022-09-01T09:37:40;22.10;99.90
21001;DHT22;10658;50.920;12.238;2022-09-01T09:41:42;22.20;99.90
21001;DHT22;10658;50.920;12.238;2022-09-01T09:45:44;22.10;99.90
21001;DHT22;10658;50.920;12.238;2022-09-01T09:49:46;22.20;99.90
21001;DHT22;10658;50.920;12.238;2022-09-01T09:53:48;22.20;99.90
21001;DHT22;10658;50.920;12.238;2022-09-01T09:58:00;22.40;99.90
21001;DHT22;10658;50.920;12.238;2022-09-01T10:10:53;22.80;99.90
21001;DHT22;10658;50.920;12.238;2022-09-01T10:24:34;23.10;99.90
21001;DHT22;10658;50.920;12.238;2022-09-01T10:33:18;23.40;99.90
21001;DHT22;10658;50.920;12.238;2022-09-01T10:37:22;23.10;99.90
21001;DHT22;10658;50.920;12.238;2022-09-01T10:45:48;23.80;99.90
21001;DHT22;10658;50.920;12.238;2022-09-01T10:53:52;23.60;99.90
21001;DHT22;10658;50.920;12.238;2022-09-01T10:58:24;23.80;99.90
21001;DHT22;10658;50.920;12.238;2022-09-01T11:02:30;24.10;99.90
21001;DHT22;10658;50.920;12.238;2022-09-01T11:06:43;24.10;99.90
21001;DHT22;10658;50.920;12.238;2022-09-01T11:14:58;22.50;99.90
21001;DHT22;10658;50.920;12.238;2022-09-01T11:23:29;24.00;99.90
21001;DHT22;10658;50.920;12.238;2022-09-01T11:31:51;24.10;99.90
21001;DHT22;10658;50.920;12.238;2022-09-01T11:36:05;23.90;99.90
21001;DHT22;10658;50.920;12.238;2022-09-01T11:40:07;23.60;99.90
21001;DHT22;10658;50.920;12.238;2022-09-01T11:44:14;22.40;99.90
21001;DHT22;10658;50.920;12.238;2022-09-01T11:48:17;22.20;99.90
21001;DHT22;10658;50.920;12.238;2022-09-01T11:52:20;22.00;99.90
21001;DHT22;10658;50.920;12.238;2022-09-01T11:56:26;22.50;99.90
21001;DHT22;10658;50.920;12.238;2022-09-01T12:00:34;22.00;99.90
21001;DHT22;10658;50.920;12.238;2022-09-01T12:04:38;21.50;99.90
21001;DHT22;10658;50.920;12.238;2022-09-01T12:08:54;21.60;99.90
21001;DHT22;10658;50.920;12.238;2022-09-01T12:17:05;21.50;99.90
21001;DHT22;10658;50.920;12.238;2022-09-01T12:21:07;22.20;99.90
21001;DHT22;10658;50.920;12.238;2022-09-01T12:25:23;22.60;99.90
21001;DHT22;10658;50.920;12.238;2022-09-01T12:29:24;22.60;99.90
21001;DHT22;10658;50.920;12.238;2022-09-01T12:33:26;22.50;99.90
21001;DHT22;10658;50.920;12.238;2022-09-01T12:37:29;22.40;99.90
21001;DHT22;10658;50.920;12.238;2022-09-01T12:41:35;22.60;99.90
21001;DHT22;10658;50.920;12.238;2022-09-01T12:45:46;22.70;99.90
21001;DHT22;10658;50.920;12.238;2022-09-01T12:49:47;22.70;99.90
21001;DHT22;10658;50.920;12.238;2022-09-01T12:53:54;22.70;99.90
21001;DHT22;10658;50.920;12.238;2022-09-01T12:57:58;22.80;99.90
21001;DHT22;10658;50.920;12.238;2022-09-01T13:02:33;22.80;99.90
21001;DHT22;10658;50.920;12.238;2022-09-01T13:06:35;22.80;99.90
21001;DHT22;10658;50.920;12.238;2022-09-01T13:10:42;22.90;99.90
21001;DHT22;10658;50.920;12.238;2022-09-01T13:19:03;22.70;99.90
21001;DHT22;10658;50.920;12.238;2022-09-01T13:23:30;22.90;99.90
21001;DHT22;10658;50.920;12.238;2022-09-01T13:27:32;22.80;99.90
21001;DHT22;10658;50.920;12.238;2022-09-01T13:31:33;22.70;99.90
21001;DHT22;10658;50.920;12.238;2022-09-01T13:35:35;22.70;99.90
21001;DHT22;10658;50.920;12.238;2022-09-01T13:39:37;22.80;99.90
21001;DHT22;10658;50.920;12.238;2022-09-01T13:43:38;22.60;99.90
21001;DHT22;10658;50.920;12.238;2022-09-01T13:47:43;22.50;99.90
21001;DHT22;10658;50.920;12.238;2022-09-01T13:51:50;22.50;99.90
21001;DHT22;10658;50.920;12.238;2022-09-01T13:55:52;22.30;99.90
21001;DHT22;10658;50.920;12.238;2022-09-01T13:59:54;22.30;99.90
21001;DHT22;10658;50.920;12.238;2022-09-01T14:03:56;22.20;99.90
21001;DHT22;10658;50.920;12.238;2022-09-01T14:08:01;22.30;99.90
21001;DHT22;10658;50.920;12.238;2022-09-01T14:12:03;22.30;99.90
21001;DHT22;10658;50.920;12.238;2022-09-01T14:16:10;22.70;99.90
21001;DHT22;10658;50.920;12.238;2022-09-01T14:20:18;23.30;99.90
21001;DHT22;10658;50.920;12.238;2022-09-01T14:24:19;23.70;99.90
21001;DHT22;10658;50.920;12.238;2022-09-01T14:28:22;24.10;99.90
21001;DHT22;10658;50.920;12.238;2022-09-01T14:32:24;24.40;99.90
21001;DHT22;10658;50.920;12.238;2022-09-01T14:36:27;24.90;99.90
21001;DHT22;10658;50.920;12.238;2022-09-01T14:40:28;24.70;99.90
21001;DHT22;10658;50.920;12.238;2022-09-01T14:44:29;24.50;99.90
21001;DHT22;10658;50.920;12.238;2022-09-01T14:48:32;24.70;99.90
21001;DHT22;10658;50.920;12.238;2022-09-01T14:52:34;24.60;99.90
21001;DHT22;10658;50.920;12.238;2022-09-01T14:56:37;24.80;99.90
21001;DHT22;10658;50.920;12.238;2022-09-01T15:00:39;24.50;99.90
21001;DHT22;10658;50.920;12.238;2022-09-01T15:04:42;24.50;99.90
21001;DHT22;10658;50.920;12.238;2022-09-01T15:08:44;24.00;99.90
21001;DHT22;10658;50.920;12.238;2022-09-01T15:12:45;23.00;99.90
21001;DHT22;10658;50.920;12.238;2022-09-01T15:16:46;21.80;99.90
21001;DHT22;10658;50.920;12.238;2022-09-01T15:20:48;21.30;99.90
21001;DHT22;10658;50.920;12.238;2022-09-01T15:24:51;21.30;99.90
21001;DHT22;10658;50.920;12.238;2022-09-01T15:28:52;21.80;99.90
21001;DHT22;10658;50.920;12.238;2022-09-01T15:32:59;21.80;99.90
21001;DHT22;10658;50.920;12.238;2022-09-01T15:37:14;21.80;99.90
21001;DHT22;10658;50.920;12.238;2022-09-01T15:41:28;21.90;99.90
21001;DHT22;10658;50.920;12.238;2022-09-01T15:45:30;21.90;99.90
21001;DHT22;10658;50.920;12.238;2022-09-01T15:49:32;21.90;99.90
21001;DHT22;10658;50.920;12.238;2022-09-01T15:53:34;21.90;99.90
21001;DHT22;10658;50.920;12.238;2022-09-01T15:57:36;21.70;99.90
21001;DHT22;10658;50.920;12.238;2022-09-01T16:01:41;21.40;99.90
21001;DHT22;10658;50.920;12.238;2022-09-01T16:05:44;21.10;99.90
21001;DHT22;10658;50.920;12.238;2022-09-01T16:09:46;21.10;99.90
21001;DHT22;10658;50.920;12.238;2022-09-01T16:13:48;20.90;99.90
21001;DHT22;10658;50.920;12.238;2022-09-01T16:22:55;20.70;99.90
21001;DHT22;10658;50.920;12.238;2022-09-01T16:27:46;20.50;99.90
21001;DHT22;10658;50.920;12.238;2022-09-01T16:31:54;20.40;99.90
21001;DHT22;10658;50.920;12.238;2022-09-01T16:36:11;20.20;99.90
21001;DHT22;10658;50.920;12.238;2022-09-01T16:40:37;20.10;99.90
21001;DHT22;10658;50.920;12.238;2022-09-01T16:58:16;19.70;99.90
21001;DHT22;10658;50.920;12.238;2022-09-01T17:06:58;19.40;99.90
21001;DHT22;10658;50.920;12.238;2022-09-01T17:11:27;19.40;99.90
21001;DHT22;10658;50.920;12.238;2022-09-01T17:15:37;19.20;99.90
21001;DHT22;10658;50.920;12.238;2022-09-01T17:19:41;19.10;99.90
21001;DHT22;10658;50.920;12.238;2022-09-01T17:28:35;18.80;99.90
21001;DHT22;10658;50.920;12.238;2022-09-01T17:41:31;18.40;99.90
21001;DHT22;10658;50.920;12.238;2022-09-01T17:45:49;18.20;99.90
21001;DHT22;10658;50.920;12.238;2022-09-01T18:07:30;17.20;99.90
21001;DHT22;10658;50.920;12.238;2022-09-01T18:11:48;17.00;99.90
21001;DHT22;10658;50.920;12.238;2022-09-01T18:15:53;16.70;99.90
21001;DHT22;10658;50.920;12.238;2022-09-01T18:24:30;16.20;99.90
21001;DHT22;10658;50.920;12.238;2022-09-01T18:28:33;16.00;99.90
21001;DHT22;10658;50.920;12.238;2022-09-01T18:32:42;15.90;99.90
21001;DHT22;10658;50.920;12.238;2022-09-01T18:37:02;15.80;99.90
21001;DHT22;10658;50.920;12.238;2022-09-01T18:45:54;16.00;99.90
21001;DHT22;10658;50.920;12.238;2022-09-01T18:54:15;16.10;99.90
21001;DHT22;10658;50.920;12.238;2022-09-01T19:03:05;15.90;99.90
21001;DHT22;10658;50.920;12.238;2022-09-01T19:16:01;15.60;99.90
21001;DHT22;10658;50.920;12.238;2022-09-01T19:24:41;15.40;99.90
21001;DHT22;10658;50.920;12.238;2022-09-01T19:32:47;15.30;99.90
21001;DHT22;10658;50.920;12.238;2022-09-01T19:36:56;15.20;99.90
21001;DHT22;10658;50.920;12.238;2022-09-01T19:41:07;15.10;99.90
21001;DHT22;10658;50.920;12.238;2022-09-01T19:45:23;15.00;99.90
21001;DHT22;10658;50.920;12.238;2022-09-01T19:49:43;14.90;99.90
21001;DHT22;10658;50.920;12.238;2022-09-01T19:58:00;14.80;99.90
21001;DHT22;10658;50.920;12.238;2022-09-01T20:02:09;14.70;99.90
21001;DHT22;10658;50.920;12.238;2022-09-01T20:11:06;14.70;99.90
21001;DHT22;10658;50.920;12.238;2022-09-01T20:19:36;14.70;99.90
21001;DHT22;10658;50.920;12.238;2022-09-01T20:23:42;14.70;99.90
21001;DHT22;10658;50.920;12.238;2022-09-01T20:28:03;14.60;99.90
21001;DHT22;10658;50.920;12.238;2022-09-01T20:32:07;14.50;99.90
21001;DHT22;10658;50.920;12.238;2022-09-01T20:36:17;14.40;99.90
21001;DHT22;10658;50.920;12.238;2022-09-01T20:40:25;14.00;99.90
21001;DHT22;10658;50.920;12.238;2022-09-01T20:48:38;13.80;99.90
21001;DHT22;10658;50.920;12.238;2022-09-01T21:06:03;13.90;99.90
21001;DHT22;10658;50.920;12.238;2022-09-01T21:10:31;13.80;99.90
21001;DHT22;10658;50.920;12.238;2022-09-01T21:14:49;13.80;99.90
21001;DHT22;10658;50.920;12.238;2022-09-01T21:23:17;13.80;99.90
21001;DHT22;10658;50.920;12.238;2022-09-01T21:27:42;13.60;99.90
21001;DHT22;10658;50.920;12.238;2022-09-01T21:31:41;13.30;99.90
21001;DHT22;10658;50.920;12.238;2022-09-01T21:35:43;13.10;99.90
21001;DHT22;10658;50.920;12.238;2022-09-01T21:39:44;13.10;99.90
21001;DHT22;10658;50.920;12.238;2022-09-01T21:43:45;13.10;99.90
21001;DHT22;10658;50.920;12.238;2022-09-01T21:47:47;13.10;99.90
21001;DHT22;10658;50.920;12.238;2022-09-01T21:51:49;13.00;99.90
21001;DHT22;10658;50.920;12.238;2022-09-01T21:55:50;12.80;99.90
21001;DHT22;10658;50.920;12.238;2022-09-01T21:59:51;12.80;99.90
21001;DHT22;10658;50.920;12.238;2022-09-01T22:03:52;12.90;99.90
21001;DHT22;10658;50.920;12.238;2022-09-01T22:07:54;12.90;99.90
21001;DHT22;10658;50.920;12.238;2022-09-01T22:11:56;13.00;99.90
21001;DHT22;10658;50.920;12.238;2022-09-01T22:15:57;12.90;99.90
21001;DHT22;10658;50.920;12.238;2022-09-01T22:19:58;12.90;99.90
21001;DHT22;10658;50.920;12.238;2022-09-01T22:23:59;12.80;99.90
21001;DHT22;10658;50.920;12.238;2022-09-01T22:28:02;12.80;99.90
21001;DHT22;10658;50.920;12.238;2022-09-01T22:32:04;12.80;99.90
21001;DHT22;10658;50.920;12.238;2022-09-01T22:36:05;12.70;99.90
21001;DHT22;10658;50.920;12.238;2022-09-01T22:40:07;12.60;99.90
21001;DHT22;10658;50.920;12.238;2022-09-01T22:44:08;12.50;99.90
21001;DHT22;10658;50.920;12.238;2022-09-01T22:48:10;12.50;99.90
21001;DHT22;10658;50.920;12.238;2022-09-01T22:52:11;12.50;99.90
21001;DHT22;10658;50.920;12.238;2022-09-01T22:56:15;12.40;99.90
21001;DHT22;10658;50.920;12.238;2022-09-01T23:00:17;12.40;99.90
21001;DHT22;10658;50.920;12.238;2022-09-01T23:04:18;12.10;99.90
21001;DHT22;10658;50.920;12.238;2022-09-01T23:08:18;12.00;99.90
21001;DHT22;10658;50.920;12.238;2022-09-01T23:12:19;11.80;99.90
21001;DHT22;10658;50.920;12.238;2022-09-01T23:16:22;11.50;99.90
21001;DHT22;10658;50.920;12.238;2022-09-01T23:20:23;11.40;99.90
21001;DHT22;10658;50.920;12.238;2022-09-01T23:24:24;11.30;99.90
21001;DHT22;10658;50.920;12.238;2022-09-01T23:28:25;11.30;99.90
21001;DHT22;10658;50.920;12.238;2022-09-01T23:32:26;11.30;99.90
21001;DHT22;10658;50.920;12.238;2022-09-01T23:36:28;11.40;99.90
21001;DHT22;10658;50.920;12.238;2022-09-01T23:40:29;11.60;99.90
21001;DHT22;10658;50.920;12.238;2022-09-01T23:44:30;11.70;99.90
21001;DHT22;10658;50.920;12.238;2022-09-01T23:48:31;11.80;99.90
21001;DHT22;10658;50.920;12.238;2022-09-01T23:52:32;11.90;99.90
21001;DHT22;10658;50.920;12.238;2022-09-01T23:56:34;11.80;99.90
